Chamisal, New Mexico
Current Conditions -  °F | °C
As of 5:15 AM on Sunday 21 Dec 2014 (Local Time) from KSKX Reporting Station
Clear Clear  
Wind Chill: 21°   Ceiling: Unl
Heat Index: 21°   Visibility: 10mi
Dew Point: 16°   Wind: 3mph
Humidity: 80%   Direction: 70°ENE
Pressure: 30.02"   Gusts: NA
Location:  36.17°N, 105.74°W
Report Text: KSKX 211215Z AUTO 07003KT 10SM CLR M06/M09 A3002 RMK AO1
Loading
Personal Weather Stations






























Interactive Weather Map New forecast layout! Learn more

10-Day Weather Forecast

Advertisements
Track Severe Weather on mobile